Time;durP1;ratioP1;P1;durP2;ratioP2;P2;SDS_P1;SDS_P2;PMS_P1;PMS_P2;Temp;Humidity;BMP_temperature;BMP_pressure;BME280_temperature;BME280_humidity;BME280_pressure;Samples;Min_cycle;Max_cycle;Signal;HPM_P1;HPM_P2
2022/03/19 15:07:30;;;;;;;31.13;13.05;;;;;;;;;;4840831;29;20084;-89
2022/03/19 15:28:50;;;;;;;35.95;18.23;;;;;;;;;;4827380;29;20074;-88
2022/03/19 15:31:19;;;;;;;38.60;17.98;;;;;;;;;;4814188;29;20034;-89
2022/03/19 15:33:45;;;;;;;39.67;18.83;;;;;;;;;;4811933;29;20038;-86
2022/03/19 15:36:15;;;;;;;40.67;17.63;;;;;;;;;;4828445;29;20515;-90
2022/03/19 15:38:44;;;;;;;33.65;17.10;;;;;;;;;;4814943;29;20041;-87
2022/03/19 15:41:46;;;;;;;37.03;17.20;;;;;;;;;;4816246;29;20039;-89
2022/03/19 15:47:05;;;;;;;41.30;19.27;;;;;;;;;;4796687;29;20039;-89
2022/03/19 15:49:31;;;;;;;37.97;18.67;;;;;;;;;;4809868;29;20049;-88
2022/03/19 15:51:57;;;;;;;32.88;16.17;;;;;;;;;;4812106;29;20041;-90
2022/03/19 15:54:23;;;;;;;33.42;17.05;;;;;;;;;;4811191;29;20125;-90
2022/03/19 15:57:41;;;;;;;36.88;17.10;;;;;;;;;;4815912;29;20030;-89
2022/03/19 16:00:07;;;;;;;35.03;17.10;;;;;;;;;;4812317;29;20400;-90
2022/03/19 16:02:37;;;;;;;39.58;18.88;;;;;;;;;;4811858;29;20049;-93
2022/03/19 16:05:05;;;;;;;43.50;19.05;;;;;;;;;;4814247;29;20041;-92
2022/03/19 16:10:47;;;;;;;;;;;;;;;;;;;;;
2022/03/19 16:13:14;;;;;;;40.45;20.23;;;;;;;;;;4827470;29;20038;-89
2022/03/19 16:21:36;;;;;;;43.97;20.27;;;;;;;;;;4861636;23;20065;-92
2022/03/19 16:24:16;;;;;;;;;;;;;;;;;;;;;
2022/03/19 16:26:43;;;;;;;45.60;21.58;;;;;;;;;;4834471;29;20034;-92
2022/03/19 16:29:13;;;;;;;43.20;19.85;;;;;;;;;;4829160;29;20030;-92
2022/03/19 16:31:42;;;;;;;42.75;19.67;;;;;;;;;;4829269;29;20034;-91
2022/03/19 16:34:09;;;;;;;42.40;21.15;;;;;;;;;;4846175;29;20034;-89
2022/03/19 16:36:56;;;;;;;41.25;21.23;;;;;;;;;;4844506;29;20074;-91
2022/03/19 16:39:26;;;;;;;49.85;22.25;;;;;;;;;;4829489;29;20061;-89
2022/03/19 16:41:55;;;;;;;43.35;22.10;;;;;;;;;;4827585;29;20476;-89
2022/03/19 16:44:27;;;;;;;50.67;24.73;;;;;;;;;;4832803;29;20044;-93
2022/03/19 16:47:28;;;;;;;48.42;24.13;;;;;;;;;;4849554;29;20400;-88
2022/03/19 16:49:54;;;;;;;52.72;26.05;;;;;;;;;;4849215;29;20047;-92
2022/03/19 16:58:41;;;;;;;51.77;25.33;;;;;;;;;;4827068;29;20050;-93
2022/03/19 17:12:24;;;;;;;92.22;43.97;;;;;;;;;;5046833;23;20777;-91
2022/03/19 17:17:19;;;;;;;69.53;34.50;;;;;;;;;;4844217;29;20042;-89
2022/03/19 17:20:02;;;;;;;55.20;28.63;;;;;;;;;;4845888;29;20037;-92
2022/03/19 17:34:17;;;;;;;53.25;27.67;;;;;;;;;;4847034;29;20071;-88
2022/03/19 17:36:44;;;;;;;61.00;25.27;;;;;;;;;;4845641;29;20037;-90
2022/03/19 17:39:13;;;;;;;53.63;24.40;;;;;;;;;;4843911;29;20069;-92
2022/03/19 17:41:55;;;;;;;49.67;26.75;;;;;;;;;;4851761;29;20060;-87
2022/03/19 17:44:27;;;;;;;67.47;26.88;;;;;;;;;;4845702;29;20049;-90
2022/03/19 17:49:57;;;;;;;99.20;40.78;;;;;;;;;;4845729;29;20046;-87
2022/03/19 17:52:51;;;;;;;104.50;44.13;;;;;;;;;;4845268;29;20465;-86
2022/03/19 17:55:26;;;;;;;107.70;44.08;;;;;;;;;;4845133;29;20077;-87
2022/03/19 17:57:54;;;;;;;121.03;44.55;;;;;;;;;;4846611;29;20026;-88
2022/03/19 18:03:34;;;;;;;95.82;39.72;;;;;;;;;;4845545;29;20045;-88
2022/03/19 18:06:03;;;;;;;87.95;36.95;;;;;;;;;;4829022;29;20026;-89
2022/03/19 18:08:37;;;;;;;88.00;33.88;;;;;;;;;;4844574;29;20049;-87
2022/03/19 18:11:03;;;;;;;76.38;31.88;;;;;;;;;;4843611;29;20381;-91
2022/03/19 18:13:29;;;;;;;84.20;32.70;;;;;;;;;;4842694;29;20034;-94
2022/03/19 18:15:55;;;;;;;75.28;31.02;;;;;;;;;;4877821;23;20203;-91
2022/03/19 18:18:24;;;;;;;78.07;34.15;;;;;;;;;;4835955;29;20080;-89
2022/03/19 18:20:50;;;;;;;73.68;30.30;;;;;;;;;;4836240;29;20066;-92
2022/03/19 18:23:35;;;;;;;74.53;30.73;;;;;;;;;;4837563;29;20038;-89
2022/03/19 18:26:01;;;;;;;81.03;32.33;;;;;;;;;;4836113;29;20027;-88
2022/03/19 18:28:52;;;;;;;80.35;32.38;;;;;;;;;;4838394;29;20396;-89
2022/03/19 18:31:22;;;;;;;68.85;30.20;;;;;;;;;;4836937;29;20031;-91
2022/03/19 18:33:48;;;;;;;71.80;29.35;;;;;;;;;;4837143;29;20039;-87
2022/03/19 18:45:35;;;;;;;62.35;26.27;;;;;;;;;;4837807;29;20040;-87
2022/03/19 18:48:26;;;;;;;59.88;25.83;;;;;;;;;;4826347;29;20034;-88
2022/03/19 18:51:29;;;;;;;76.85;30.42;;;;;;;;;;4827130;29;20077;-85
2022/03/19 18:54:24;;;;;;;;;;;;;;;;;;;;;
2022/03/19 18:57:02;;;;;;;81.80;30.33;;;;;;;;;;4845080;29;20094;-85
2022/03/19 19:02:44;;;;;;;67.28;26.85;;;;;;;;;;4822430;29;20113;-91
2022/03/19 19:08:55;;;;;;;;;;;;;;;;;;;;;
2022/03/19 19:11:25;;;;;;;74.45;28.70;;;;;;;;;;4843773;29;20275;-88
2022/03/19 19:13:52;;;;;;;72.78;26.75;;;;;;;;;;4827196;29;20054;-88
2022/03/19 19:16:56;;;;;;;66.78;27.27;;;;;;;;;;4851236;24;20088;-92
2022/03/19 19:22:29;;;;;;;62.60;24.80;;;;;;;;;;5040694;24;20038;-89
2022/03/19 19:36:15;;;;;;;77.55;29.73;;;;;;;;;;5783392;23;20025;-91
2022/03/19 19:39:00;;;;;;;77.57;27.55;;;;;;;;;;4829244;29;20079;-90
2022/03/19 19:41:26;;;;;;;68.43;27.73;;;;;;;;;;4826274;29;20457;-91
2022/03/19 19:43:55;;;;;;;76.80;29.15;;;;;;;;;;4826158;29;20026;-92
2022/03/19 19:49:34;;;;;;;86.63;30.20;;;;;;;;;;4841404;29;20041;-94
2022/03/19 19:52:03;;;;;;;78.70;29.92;;;;;;;;;;4831260;29;20045;-96
2022/03/19 19:54:48;;;;;;;84.78;31.10;;;;;;;;;;4847954;29;20045;-92
2022/03/19 20:00:22;;;;;;;70.35;28.50;;;;;;;;;;4844872;29;20033;-93
2022/03/19 20:03:12;;;;;;;;;;;;;;;;;;;;;
2022/03/19 20:05:39;;;;;;;60.20;25.90;;;;;;;;;;4832091;29;20049;-88
2022/03/19 20:08:13;;;;;;;100.90;33.72;;;;;;;;;;4827065;29;20057;-94
2022/03/19 20:10:45;;;;;;;80.85;28.75;;;;;;;;;;4830429;29;20128;-94
2022/03/19 20:13:16;;;;;;;89.43;31.00;;;;;;;;;;4840303;29;20034;-94
2022/03/19 20:15:43;;;;;;;92.82;31.02;;;;;;;;;;4833340;29;20038;-90
2022/03/19 20:18:10;;;;;;;88.63;29.80;;;;;;;;;;4830656;29;20030;-87
2022/03/19 20:20:36;;;;;;;90.13;30.10;;;;;;;;;;4831614;29;20034;-93
2022/03/19 20:23:03;;;;;;;66.00;26.77;;;;;;;;;;4831579;29;20026;-88
2022/03/19 20:25:41;;;;;;;72.20;26.73;;;;;;;;;;4830403;29;20038;-90
2022/03/19 20:28:08;;;;;;;68.25;28.35;;;;;;;;;;4831461;29;20029;-92
2022/03/19 20:34:00;;;;;;;54.97;23.35;;;;;;;;;;5902327;23;20035;-88
2022/03/19 20:39:47;;;;;;;63.47;25.42;;;;;;;;;;4789065;30;20050;-92
2022/03/19 20:42:35;;;;;;;70.93;27.50;;;;;;;;;;4773598;30;20039;-91
2022/03/19 20:51:02;;;;;;;59.60;24.30;;;;;;;;;;4871186;23;20418;-94
2022/03/19 20:53:57;;;;;;;64.38;25.45;;;;;;;;;;4831893;29;20034;-91
2022/03/19 20:56:39;;;;;;;72.13;27.08;;;;;;;;;;4844661;24;20047;-95
2022/03/19 21:05:24;;;;;;;76.65;30.02;;;;;;;;;;4821097;23;21179;-85
2022/03/19 21:13:58;;;;;;;99.70;35.60;;;;;;;;;;4830195;29;20053;-84
2022/03/19 21:23:25;;;;;;;88.22;32.63;;;;;;;;;;4818975;29;20042;-95
2022/03/19 21:25:55;;;;;;;91.72;34.28;;;;;;;;;;4758563;30;20044;-95
2022/03/19 21:28:22;;;;;;;97.88;36.60;;;;;;;;;;4772417;30;20063;-93
2022/03/19 21:31:31;;;;;;;;;;;;;;;;;;;;;
2022/03/19 21:34:20;;;;;;;91.40;34.90;;;;;;;;;;4827323;29;20403;-94
2022/03/19 21:36:46;;;;;;;89.82;34.20;;;;;;;;;;4842840;29;20041;-86
2022/03/19 21:42:00;;;;;;;91.60;35.00;;;;;;;;;;4825837;29;20047;-85
2022/03/19 21:44:26;;;;;;;92.38;34.97;;;;;;;;;;4825461;29;20427;-94
2022/03/19 21:46:55;;;;;;;103.38;38.58;;;;;;;;;;4840734;29;20083;-93
2022/03/19 21:49:24;;;;;;;90.90;35.88;;;;;;;;;;4825062;29;20035;-92
2022/03/19 21:51:51;;;;;;;91.72;37.20;;;;;;;;;;4823795;29;20079;-84
2022/03/19 21:56:58;;;;;;;95.75;35.67;;;;;;;;;;4857582;23;20054;-87
2022/03/19 21:59:31;;;;;;;93.13;32.95;;;;;;;;;;4827566;29;20014;-93
2022/03/19 22:02:16;;;;;;;85.43;29.40;;;;;;;;;;4846298;29;20044;-86
2022/03/19 22:04:49;;;;;;;88.43;28.55;;;;;;;;;;4843155;29;20037;-90
2022/03/19 22:07:15;;;;;;;;;;;;;;;;;;4828302;29;20026;-89
2022/03/19 22:09:57;;;;;;;;;;;;;;;;;;;;;
2022/03/19 22:12:24;;;;;;;53.35;20.52;;;;;;;;;;4840812;29;20535;-85
2022/03/19 22:14:53;;;;;;;53.85;21.65;;;;;;;;;;4828456;29;20034;-85
2022/03/19 22:17:40;;;;;;;54.55;22.90;;;;;;;;;;4825942;29;20065;-85
2022/03/19 22:20:14;;;;;;;52.00;20.45;;;;;;;;;;4823556;29;20054;-94
2022/03/19 22:22:44;;;;;;;;;;;;;;;;;;4808684;29;20026;-92
2022/03/19 22:25:17;;;;;;;45.13;18.90;;;;;;;;;;4824237;29;19916;-91
2022/03/19 22:27:52;;;;;;;67.88;22.55;;;;;;;;;;4808108;29;20023;-91
2022/03/19 22:30:22;;;;;;;51.10;20.02;;;;;;;;;;4818471;29;20038;-93
2022/03/19 22:33:19;;;;;;;54.03;20.25;;;;;;;;;;4807890;29;20504;-87
2022/03/19 22:35:54;;;;;;;39.88;18.73;;;;;;;;;;5136357;23;20061;-93
2022/03/19 22:38:29;;;;;;;40.22;16.45;;;;;;;;;;4822875;29;20022;-90
2022/03/19 22:41:04;;;;;;;39.00;15.00;;;;;;;;;;4806681;29;20042;-84
2022/03/19 22:43:32;;;;;;;42.08;15.68;;;;;;;;;;4807700;29;20030;-88
2022/03/19 22:46:02;;;;;;;33.33;14.95;;;;;;;;;;5044636;24;20586;-94
2022/03/19 22:48:39;;;;;;;36.88;16.50;;;;;;;;;;4827635;29;20040;-93
2022/03/19 22:51:09;;;;;;;40.75;15.75;;;;;;;;;;4827990;29;20045;-86
2022/03/19 22:56:26;;;;;;;47.65;18.77;;;;;;;;;;4846354;29;20028;-94
2022/03/19 22:59:43;;;;;;;;;;;;;;;;;;;;;
2022/03/19 23:02:29;;;;;;;;;;;;;;;;;;;;;
2022/03/19 23:08:15;;;;;;;36.60;14.38;;;;;;;;;;4811925;29;20039;-95
2022/03/19 23:13:36;;;;;;;33.40;13.43;;;;;;;;;;4829170;29;20045;-87
2022/03/19 23:16:05;;;;;;;31.35;13.68;;;;;;;;;;4841741;29;20048;-94
2022/03/19 23:18:32;;;;;;;44.38;17.17;;;;;;;;;;4842019;29;20038;-88
2022/03/19 23:21:08;;;;;;;41.00;17.17;;;;;;;;;;4843670;29;20038;-94
2022/03/19 23:26:38;;;;;;;39.15;16.08;;;;;;;;;;5134908;23;20069;-89
2022/03/19 23:32:07;;;;;;;45.40;16.50;;;;;;;;;;4870467;23;20060;-93
2022/03/19 23:37:54;;;;;;;37.80;14.00;;;;;;;;;;4846725;29;20267;-94
2022/03/19 23:46:29;;;;;;;37.80;13.57;;;;;;;;;;4828385;29;20154;-86
2022/03/19 23:48:56;;;;;;;38.83;15.30;;;;;;;;;;4828420;29;20045;-84
2022/03/19 23:54:09;;;;;;;41.35;16.77;;;;;;;;;;4829485;29;20103;-96
2022/03/19 23:56:54;;;;;;;32.90;13.60;;;;;;;;;;4830189;29;20489;-86
2022/03/19 23:59:20;;;;;;;33.17;14.35;;;;;;;;;;4828294;29;20038;-90
